createdAt,value
2023-03-20T00:02:24.731Z,6.18
2023-03-20T00:04:58.000Z,5.15
2023-03-20T00:07:27.781Z,6.95
2023-03-20T00:09:59.712Z,6.65
2023-03-20T00:13:04.912Z,5.57
2023-03-20T00:15:43.779Z,6.07
2023-03-20T00:18:20.076Z,6.72
2023-03-20T00:20:51.458Z,5.95
2023-03-20T00:23:22.141Z,6.37
2023-03-20T00:25:52.428Z,6.20
2023-03-20T00:28:40.931Z,6.60
2023-03-20T00:31:30.738Z,5.25
2023-03-20T00:34:08.820Z,6.65
2023-03-20T00:36:36.297Z,6.70
2023-03-20T00:39:13.360Z,6.50
2023-03-20T00:41:52.680Z,6.05
2023-03-20T00:44:32.746Z,5.78
2023-03-20T00:47:27.843Z,5.05
2023-03-20T00:50:07.303Z,7.00
2023-03-20T00:52:40.169Z,5.65
2023-03-20T00:55:12.215Z,6.00
2023-03-20T00:58:01.970Z,6.60
2023-03-20T01:00:38.274Z,7.05
2023-03-20T01:03:22.442Z,6.18
2023-03-20T01:06:00.800Z,5.47
2023-03-20T01:08:33.012Z,5.22
2023-03-20T01:11:03.295Z,5.88
2023-03-20T01:13:32.912Z,5.75
2023-03-20T01:16:05.509Z,6.90
2023-03-20T01:18:42.951Z,7.85
2023-03-20T01:21:18.468Z,7.03
2023-03-20T01:23:47.586Z,8.32
2023-03-20T01:26:30.482Z,8.23
2023-03-20T01:28:57.960Z,10.02
2023-03-20T01:31:25.637Z,10.20
2023-03-20T01:34:03.959Z,12.02
2023-03-20T01:36:40.935Z,11.00
2023-03-20T01:39:11.579Z,10.38
2023-03-20T01:41:42.259Z,9.48
2023-03-20T01:44:25.180Z,9.77
2023-03-20T01:47:00.571Z,9.02
2023-03-20T01:49:28.739Z,8.88
2023-03-20T01:54:41.178Z,9.15
2023-03-20T01:57:16.772Z,8.93
2023-03-20T01:59:55.925Z,7.85
2023-03-20T02:02:36.469Z,8.73
2023-03-20T02:05:15.089Z,7.50
2023-03-20T02:07:58.391Z,7.47
2023-03-20T02:10:29.215Z,8.45
2023-03-20T02:13:12.082Z,6.55
2023-03-20T02:16:34.641Z,7.32
2023-03-20T02:19:17.967Z,6.63
2023-03-20T02:22:08.188Z,5.90
2023-03-20T02:24:57.725Z,6.60
2023-03-20T02:28:19.131Z,6.07
2023-03-20T02:31:26.946Z,4.95
2023-03-20T02:34:20.698Z,4.90
2023-03-20T02:37:33.071Z,4.55
2023-03-20T02:40:21.789Z,3.63
2023-03-20T02:42:55.177Z,4.28
2023-03-20T02:45:54.328Z,3.90
2023-03-20T02:48:59.019Z,3.03
2023-03-20T02:51:41.323Z,2.97
2023-03-20T02:54:17.796Z,2.35
2023-03-20T02:57:08.892Z,3.35
2023-03-20T02:59:47.034Z,2.25
2023-03-20T03:02:44.210Z,1.70
2023-03-20T03:05:26.046Z,1.70
2023-03-20T03:07:59.987Z,1.73
2023-03-20T03:10:56.289Z,1.92
2023-03-20T03:13:31.640Z,1.65
2023-03-20T03:16:13.757Z,1.60
2023-03-20T03:18:45.794Z,1.30
2023-03-20T03:21:17.580Z,1.95
2023-03-20T03:23:51.157Z,1.55
2023-03-20T03:26:27.913Z,2.30
2023-03-20T03:29:11.720Z,1.90
2023-03-20T03:31:39.530Z,2.47
2023-03-20T03:34:15.796Z,1.40
2023-03-20T03:37:05.834Z,1.42
2023-03-20T03:39:51.389Z,1.50
2023-03-20T03:42:51.908Z,1.40
2023-03-20T03:45:28.047Z,2.00
2023-03-20T03:48:35.119Z,1.52
2023-03-20T03:51:16.430Z,1.83
2023-03-20T03:54:09.303Z,1.67
2023-03-20T03:56:48.744Z,2.17
2023-03-20T03:59:39.817Z,2.05
2023-03-20T04:02:14.522Z,2.13
2023-03-20T04:04:46.401Z,2.90
2023-03-20T04:07:23.606Z,3.17
2023-03-20T04:09:56.245Z,3.67
2023-03-20T04:12:43.625Z,4.93
2023-03-20T04:15:12.980Z,3.58
2023-03-20T04:17:45.597Z,3.15
2023-03-20T04:20:16.305Z,2.85
2023-03-20T04:22:48.921Z,3.47
2023-03-20T04:25:25.083Z,3.20
2023-03-20T04:27:57.736Z,3.75
2023-03-20T04:31:00.723Z,3.55
2023-03-20T04:33:48.536Z,3.90
2023-03-20T04:36:35.360Z,5.32
2023-03-20T04:39:07.220Z,6.00
2023-03-20T04:41:34.590Z,6.53
2023-03-20T04:44:08.034Z,6.25
2023-03-20T04:46:36.227Z,7.07
2023-03-20T04:51:40.789Z,6.07
2023-03-20T04:54:13.989Z,5.25
2023-03-20T04:56:45.433Z,6.05
2023-03-20T04:59:22.348Z,5.65
2023-03-20T05:01:55.812Z,6.10
2023-03-20T05:04:26.380Z,5.85
2023-03-20T05:06:56.876Z,5.40
2023-03-20T05:09:30.143Z,5.32
2023-03-20T05:12:01.543Z,5.47
2023-03-20T05:15:02.457Z,6.40
2023-03-20T05:17:54.641Z,5.90
2023-03-20T05:20:51.562Z,5.93
2023-03-20T05:23:29.038Z,4.85
2023-03-20T05:26:19.361Z,4.80
2023-03-20T05:29:14.662Z,4.93
2023-03-20T05:32:01.203Z,4.78
2023-03-20T05:34:56.391Z,4.75
2023-03-20T05:37:35.720Z,4.38
2023-03-20T05:40:14.449Z,5.60
2023-03-20T05:42:45.428Z,4.40
2023-03-20T05:45:34.941Z,5.70
2023-03-20T05:48:22.194Z,6.25
2023-03-20T05:51:13.504Z,6.65
2023-03-20T05:53:57.855Z,6.50
2023-03-20T05:56:31.322Z,5.32
2023-03-20T05:59:20.512Z,5.75
2023-03-20T06:02:01.892Z,4.47
2023-03-20T06:04:35.099Z,4.07
2023-03-20T06:07:20.183Z,3.65
2023-03-20T06:09:59.613Z,4.90
2023-03-20T06:12:41.512Z,3.25
2023-03-20T06:15:10.385Z,3.63
2023-03-20T06:17:47.625Z,3.25
2023-03-20T06:20:21.351Z,4.05
2023-03-20T06:22:53.894Z,4.88
2023-03-20T06:25:25.593Z,4.43
2023-03-20T06:27:58.593Z,4.03
2023-03-20T06:30:31.278Z,5.03
2023-03-20T06:33:03.764Z,4.78
2023-03-20T06:35:47.667Z,3.30
2023-03-20T06:38:16.452Z,3.63
2023-03-20T06:40:45.263Z,4.38
2023-03-20T06:43:17.716Z,4.82
2023-03-20T06:45:51.103Z,5.40
2023-03-20T06:48:23.444Z,4.97
2023-03-20T06:50:53.090Z,6.28
2023-03-20T06:53:28.436Z,5.18
2023-03-20T06:56:07.910Z,5.38
2023-03-20T06:58:37.401Z,6.00
2023-03-20T07:01:20.641Z,4.90
2023-03-20T07:03:51.439Z,6.13
2023-03-20T07:06:26.799Z,6.03
2023-03-20T07:08:56.711Z,5.18
2023-03-20T07:11:30.350Z,6.65
2023-03-20T07:13:59.848Z,6.85
2023-03-20T07:16:43.710Z,6.82
2023-03-20T07:19:11.414Z,6.47
2023-03-20T07:21:43.682Z,5.13
2023-03-20T07:24:14.090Z,5.55
2023-03-20T07:26:49.057Z,5.20
2023-03-20T07:29:24.010Z,4.78
2023-03-20T07:31:53.264Z,5.40
2023-03-20T07:34:28.085Z,5.95
2023-03-20T07:36:59.775Z,5.57
2023-03-20T07:39:27.744Z,6.15
2023-03-20T07:42:16.499Z,6.07
2023-03-20T07:44:51.826Z,6.05
2023-03-20T07:47:22.302Z,5.60
2023-03-20T07:49:52.527Z,5.15
2023-03-20T07:52:22.485Z,6.07
2023-03-20T07:54:49.879Z,5.20
2023-03-20T07:57:20.893Z,6.40
2023-03-20T08:02:41.230Z,7.18
2023-03-20T08:05:10.606Z,5.72
2023-03-20T08:07:44.316Z,5.72
2023-03-20T08:10:15.444Z,6.32
2023-03-20T08:12:45.415Z,4.75
2023-03-20T08:15:17.719Z,5.57
2023-03-20T08:20:17.077Z,5.05
2023-03-20T08:22:50.603Z,5.35
2023-03-20T08:25:17.950Z,4.88
2023-03-20T08:27:54.218Z,5.10
2023-03-20T08:30:24.069Z,4.28
2023-03-20T08:32:51.563Z,4.93
2023-03-20T08:35:32.159Z,3.95
2023-03-20T08:38:03.890Z,3.80
2023-03-20T08:40:40.597Z,4.60
2023-03-20T08:43:08.552Z,4.65
2023-03-20T08:45:38.302Z,4.15
2023-03-20T08:48:10.841Z,4.80
2023-03-20T08:53:12.820Z,4.28
2023-03-20T08:55:52.340Z,4.22
2023-03-20T08:58:23.228Z,4.63
2023-03-20T09:00:55.855Z,4.35
2023-03-20T09:03:24.507Z,5.10
2023-03-20T09:06:00.341Z,4.38
2023-03-20T09:08:32.898Z,3.83
2023-03-20T09:11:00.676Z,4.50
2023-03-20T09:13:34.345Z,3.45
2023-03-20T09:16:01.767Z,3.67
2023-03-20T09:18:31.956Z,3.03
2023-03-20T09:21:04.740Z,2.92
2023-03-20T09:23:35.120Z,4.55
2023-03-20T09:26:02.463Z,4.05
2023-03-20T09:28:29.813Z,4.22
2023-03-20T09:30:58.343Z,3.38
2023-03-20T09:33:31.763Z,3.38
2023-03-20T09:36:02.884Z,2.97
2023-03-20T09:38:33.159Z,3.13
2023-03-20T09:41:04.623Z,3.75
2023-03-20T09:43:56.202Z,3.67
2023-03-20T09:47:19.327Z,4.20
2023-03-20T09:50:24.343Z,3.47
2023-03-20T09:52:58.866Z,2.78
2023-03-20T09:55:33.113Z,3.90
2023-03-20T09:58:16.752Z,3.80
2023-03-20T10:00:46.487Z,2.63
2023-03-20T10:03:41.216Z,3.58
2023-03-20T10:06:14.025Z,3.47
2023-03-20T10:08:47.304Z,3.50
2023-03-20T10:11:42.239Z,3.70
2023-03-20T10:14:37.300Z,3.47
2023-03-20T10:17:21.880Z,3.67
2023-03-20T10:20:10.374Z,5.00
2023-03-20T10:22:46.656Z,4.05
2023-03-20T10:25:30.701Z,3.35
2023-03-20T10:28:24.442Z,4.40
2023-03-20T10:31:29.750Z,3.60
2023-03-20T10:34:48.565Z,3.78
2023-03-20T10:37:55.193Z,4.53
2023-03-20T10:40:41.362Z,3.70
2023-03-20T10:43:11.680Z,3.70
2023-03-20T10:46:00.113Z,3.53
2023-03-20T10:48:38.729Z,4.47
2023-03-20T10:51:11.592Z,3.58
2023-03-20T10:53:53.170Z,3.47
2023-03-20T10:56:44.603Z,2.73
2023-03-20T10:59:22.634Z,2.50
2023-03-20T11:01:50.075Z,2.90
2023-03-20T11:04:19.667Z,3.28
2023-03-20T11:06:53.061Z,2.30
2023-03-20T11:09:35.110Z,2.50
2023-03-20T11:12:03.616Z,2.38
2023-03-20T11:14:39.832Z,2.63
2023-03-20T11:17:07.409Z,2.63
2023-03-20T11:19:42.566Z,2.05
2023-03-20T11:22:26.902Z,2.83
2023-03-20T11:25:03.715Z,1.52
2023-03-20T11:27:36.843Z,1.90
2023-03-20T11:30:17.850Z,2.50
2023-03-20T11:33:07.569Z,1.77
2023-03-20T11:35:36.290Z,1.85
2023-03-20T11:38:33.347Z,2.42
2023-03-20T11:41:08.575Z,1.80
2023-03-20T11:43:44.225Z,2.60
2023-03-20T11:46:24.276Z,2.03
2023-03-20T11:49:30.356Z,2.58
2023-03-20T11:52:11.579Z,2.08
2023-03-20T11:55:01.444Z,2.10
2023-03-20T11:57:36.768Z,1.55
2023-03-20T12:00:31.896Z,2.20
2023-03-20T12:03:01.653Z,2.22
2023-03-20T12:05:46.006Z,2.42
2023-03-20T12:08:19.338Z,2.60
2023-03-20T12:10:58.234Z,2.15
2023-03-20T12:13:33.261Z,2.13
2023-03-20T12:16:05.101Z,2.55
2023-03-20T12:18:48.659Z,2.35
2023-03-20T12:21:33.605Z,2.10
2023-03-20T12:24:19.345Z,2.70
2023-03-20T12:27:06.363Z,2.55
2023-03-20T12:29:48.049Z,2.22
2023-03-20T12:32:31.058Z,2.40
2023-03-20T12:35:34.849Z,3.13
2023-03-20T12:38:22.532Z,2.10
2023-03-20T12:41:06.921Z,1.95
2023-03-20T12:44:04.396Z,2.30
2023-03-20T12:46:37.552Z,2.63
2023-03-20T12:49:13.014Z,2.58
2023-03-20T12:52:12.602Z,3.17
2023-03-20T12:55:25.809Z,2.85
2023-03-20T12:58:22.088Z,2.50
2023-03-20T13:01:01.830Z,2.97
2023-03-20T13:04:12.640Z,3.38
2023-03-20T13:07:01.014Z,2.88
2023-03-20T13:10:21.518Z,3.92
2023-03-20T13:13:04.390Z,3.20
2023-03-20T13:15:55.664Z,3.25
2023-03-20T13:19:09.260Z,3.45
2023-03-20T13:21:46.081Z,3.72
2023-03-20T13:24:37.899Z,3.72
2023-03-20T13:27:23.414Z,3.13
2023-03-20T13:30:13.275Z,3.90
2023-03-20T13:33:20.017Z,3.30
2023-03-20T13:35:52.885Z,4.53
2023-03-20T13:38:31.667Z,3.95
2023-03-20T13:41:06.386Z,4.20
2023-03-20T13:44:23.148Z,4.30
2023-03-20T13:47:37.658Z,4.22
2023-03-20T13:51:00.895Z,4.72
2023-03-20T13:53:35.530Z,4.00
2023-03-20T13:56:12.228Z,3.45
2023-03-20T13:59:19.576Z,3.70
2023-03-20T14:03:25.211Z,3.47
2023-03-20T14:06:30.589Z,4.07
2023-03-20T14:09:49.906Z,3.90
2023-03-20T14:12:35.083Z,4.28
2023-03-20T14:15:04.552Z,4.38
2023-03-20T14:17:52.178Z,4.80
2023-03-20T14:23:29.590Z,5.97
2023-03-20T14:26:11.976Z,4.43
2023-03-20T14:29:13.352Z,4.50
2023-03-20T14:38:38.717Z,4.15
2023-03-20T14:41:54.497Z,4.68
2023-03-20T14:44:39.105Z,3.70
2023-03-20T14:47:31.834Z,3.85
2023-03-20T14:50:10.939Z,5.03
2023-03-20T14:52:55.774Z,5.13
2023-03-20T14:55:27.791Z,4.93
2023-03-20T14:58:00.404Z,3.47
2023-03-20T15:00:37.499Z,3.83
2023-03-20T15:03:18.761Z,3.88
2023-03-20T15:05:47.966Z,3.78
2023-03-20T15:08:46.761Z,3.83
2023-03-20T15:11:15.373Z,3.65
2023-03-20T15:14:28.987Z,3.60
2023-03-20T15:17:35.383Z,4.40
2023-03-20T15:20:20.148Z,4.63
2023-03-20T15:23:01.692Z,3.95
2023-03-20T15:25:43.969Z,4.80
2023-03-20T15:28:21.549Z,3.35
2023-03-20T15:30:56.124Z,4.47
2023-03-20T15:33:34.331Z,3.63
2023-03-20T15:36:16.767Z,3.90
2023-03-20T15:38:45.656Z,4.15
2023-03-20T15:41:34.638Z,4.13
2023-03-20T15:44:25.680Z,4.93
2023-03-20T15:47:35.089Z,5.03
2023-03-20T16:07:02.032Z,4.30
2023-03-20T16:10:09.779Z,4.63
2023-03-20T16:18:24.062Z,4.22
2023-03-20T16:24:49.117Z,4.07
2023-03-20T16:27:37.188Z,3.75
2023-03-20T16:40:24.456Z,3.85
2023-03-20T16:42:59.870Z,3.45
2023-03-20T16:46:11.045Z,3.40
2023-03-20T16:48:56.538Z,2.08
2023-03-20T16:51:47.338Z,2.65
2023-03-20T16:54:21.356Z,1.77
2023-03-20T16:56:56.084Z,2.28
2023-03-20T16:59:25.050Z,2.20
2023-03-20T17:01:54.339Z,1.80
2023-03-20T17:04:29.136Z,1.60
2023-03-20T17:07:01.165Z,1.60
2023-03-20T17:09:32.175Z,1.27
2023-03-20T17:12:09.382Z,1.90
2023-03-20T17:14:42.155Z,1.40
2023-03-20T17:17:19.000Z,1.90
2023-03-20T17:19:50.224Z,1.45
2023-03-20T17:22:36.768Z,1.98
2023-03-20T17:25:05.731Z,1.83
2023-03-20T17:27:34.395Z,1.27
2023-03-20T17:30:11.614Z,1.42
2023-03-20T17:32:56.594Z,1.70
2023-03-20T17:35:25.088Z,2.13
2023-03-20T17:37:56.816Z,1.80
2023-03-20T17:40:30.957Z,2.25
2023-03-20T17:43:33.455Z,2.08
2023-03-20T17:46:05.858Z,2.05
2023-03-20T17:51:03.451Z,2.30
2023-03-20T17:53:31.622Z,1.70
2023-03-20T17:56:01.700Z,6.53
2023-03-20T17:58:31.386Z,6.47
2023-03-20T18:00:59.505Z,5.43
2023-03-20T18:03:35.728Z,4.70
2023-03-20T18:06:06.775Z,4.22
2023-03-20T18:08:39.042Z,3.90
2023-03-20T18:11:11.210Z,3.35
2023-03-20T18:13:40.745Z,3.53
2023-03-20T18:16:16.801Z,3.15
2023-03-20T18:18:51.800Z,2.97
2023-03-20T18:21:41.641Z,2.60
2023-03-20T18:24:12.309Z,2.65
2023-03-20T18:26:39.516Z,2.63
2023-03-20T18:29:11.484Z,2.85
2023-03-20T18:31:42.267Z,1.98
2023-03-20T18:34:13.077Z,2.72
2023-03-20T18:37:02.419Z,1.98
2023-03-20T18:39:33.409Z,2.45
2023-03-20T18:42:00.606Z,2.72
2023-03-20T18:44:27.710Z,2.38
2023-03-20T18:47:44.412Z,2.90
2023-03-20T18:50:36.950Z,3.95
2023-03-20T18:55:32.965Z,3.80
2023-03-20T18:58:03.891Z,4.15
2023-03-20T19:00:46.451Z,3.88
2023-03-20T19:03:13.638Z,3.38
2023-03-20T19:05:41.062Z,4.10
2023-03-20T19:08:17.999Z,3.50
2023-03-20T19:11:15.335Z,4.10
2023-03-20T19:13:59.109Z,5.60
2023-03-20T19:16:53.142Z,5.32
2023-03-20T19:19:22.455Z,5.43
2023-03-20T19:21:59.114Z,4.32
2023-03-20T19:24:40.867Z,4.47
2023-03-20T19:27:09.831Z,4.13
2023-03-20T19:29:41.191Z,3.95
2023-03-20T19:36:46.594Z,3.95
2023-03-20T19:39:15.118Z,4.30
2023-03-20T19:41:42.633Z,3.95
2023-03-20T19:44:12.267Z,4.32
2023-03-20T19:47:31.299Z,4.93
2023-03-20T19:51:04.653Z,4.75
2023-03-20T19:53:38.752Z,5.90
2023-03-20T19:56:17.796Z,5.90
2023-03-20T19:58:49.838Z,6.00
2023-03-20T20:06:22.202Z,7.10
2023-03-20T20:08:50.737Z,8.05
2023-03-20T20:11:19.390Z,7.78
2023-03-20T20:14:04.670Z,6.97
2023-03-20T20:16:50.920Z,6.32
2023-03-20T20:19:48.757Z,7.65
2023-03-20T20:22:25.326Z,7.70
2023-03-20T20:25:23.981Z,8.23
2023-03-20T20:32:31.243Z,7.03
2023-03-20T20:45:08.211Z,8.85
2023-03-20T21:09:14.219Z,9.38
2023-03-20T21:11:47.299Z,8.75
2023-03-20T21:14:44.266Z,10.10
2023-03-20T21:17:16.766Z,9.95
2023-03-20T21:20:05.121Z,9.30
2023-03-20T21:23:44.478Z,10.55
2023-03-20T21:26:00.206Z,8.65
2023-03-20T21:28:34.316Z,7.70
2023-03-20T21:31:24.522Z,7.60
2023-03-20T21:43:06.859Z,13.05
2023-03-20T21:46:30.914Z,13.02
2023-03-20T21:56:31.298Z,13.65
2023-03-20T22:02:20.828Z,11.90
2023-03-20T22:14:20.011Z,12.30
2023-03-20T22:17:19.887Z,13.05
2023-03-20T22:22:48.650Z,13.30
2023-03-20T22:34:09.198Z,10.70
2023-03-20T22:36:51.996Z,10.57
2023-03-20T22:44:56.799Z,9.75
2023-03-20T22:47:09.844Z,9.93
2023-03-20T22:49:46.260Z,9.88
2023-03-20T22:52:29.043Z,11.25
2023-03-20T22:54:58.843Z,9.85
2023-03-20T22:57:42.441Z,8.65
2023-03-20T23:00:47.843Z,10.20
2023-03-20T23:03:33.326Z,8.20
2023-03-20T23:06:41.361Z,8.63
2023-03-20T23:17:09.283Z,7.70
2023-03-20T23:20:21.389Z,6.50
2023-03-20T23:22:51.623Z,6.80
2023-03-20T23:25:38.144Z,8.32
2023-03-20T23:28:11.184Z,9.90
2023-03-20T23:30:46.510Z,7.32
2023-03-20T23:33:15.731Z,9.05
2023-03-20T23:36:01.200Z,8.82
2023-03-20T23:38:40.673Z,8.50
2023-03-20T23:41:11.274Z,9.07
2023-03-20T23:43:41.079Z,8.40
2023-03-20T23:46:12.275Z,8.48
2023-03-20T23:48:41.093Z,10.03
2023-03-20T23:51:09.112Z,9.45
2023-03-20T23:53:40.273Z,8.68
2023-03-20T23:56:10.141Z,9.73
2023-03-20T23:58:41.947Z,9.73
